Portada
METAR-TAF:

METAR-TAF

Aeropuertos :

Aeropuerto de Mostar

Mostar, Bosnia y Herzegovina

latitud: 43-21N, longitud: 017-48E, altitud: 108 m

Observación

El informe se hizo hace 56 minutos, a las 16:00 UTC
Viento 8 kt del sureste
Temperatura 21°C
Humedad 30%
Presión 1027 hPa
Visibilidad 10 km o más
sin nubes por debajo de 1500 m y sin presencia de cumulonimbus.

METAR: LQMO 251600Z 13008KT CAVOK 21/03 Q1027

Hora: 17:56 (16:56 UTC)

Pronóstico

El informe se hizo hace 5 horas y 56 minutos, a las 11:00 UTC
Pronóstico válido del 25 a las 12 UTC al 26 a las 12 UTC
Viento 2 kt con dirección variable
Visibilidad 10 km o más
sin nubes por debajo de 1500 m y sin presencia de cumulonimbus.

TAF: LQMO 251100Z 2512/2612 VRB02KT CAVOK TX25/2514Z TN03/2606Z

Observaciones y pronósticos meteorológicos de más de 4000 aeropuertos (mensajes METAR y TAF).

Los puntos amarillos y rojos representan las estaciones disponibles.

Ponga el ratón en el punto deseado para ver el nombre de la estación.

Haga clic para ver las observaciones y los pronósticos meteorológicos.

Para cambiar el mapa : haga clic en los botones verdes con una cruz de color negro para hacer un zoom, en el botón verde con un guión para alejar o en las flechas verdes para mapas adyacentes.


METAR-TAF: